Time;durP1;ratioP1;P1;durP2;ratioP2;P2;SDS_P1;SDS_P2;PMS_P1;PMS_P2;Temp;Humidity;BMP_temperature;BMP_pressure;BME280_temperature;BME280_humidity;BME280_pressure;Samples;Min_cycle;Max_cycle;Signal;HPM_P1;HPM_P2
2022/12/13 00:01:55;;;;;;;22.75;19.92;;;-1.80;96.60;;;;;;5123806;27;20406;-75
2022/12/13 00:04:24;;;;;;;22.63;19.98;;;-1.70;96.70;;;;;;5124982;27;20438;-75
2022/12/13 00:06:52;;;;;;;22.40;20.10;;;-1.70;96.60;;;;;;5110556;22;20445;-70
2022/12/13 00:09:19;;;;;;;22.33;19.45;;;-1.80;96.60;;;;;;5082491;28;20416;-70
2022/12/13 00:11:47;;;;;;;25.10;21.65;;;-1.80;96.60;;;;;;5067286;28;20434;-70
2022/12/13 00:14:15;;;;;;;23.20;20.70;;;-1.80;96.70;;;;;;5066638;28;20474;-70
2022/12/13 00:16:45;;;;;;;25.95;21.52;;;-1.90;96.90;;;;;;5074294;28;20443;-70
2022/12/13 00:19:12;;;;;;;22.40;19.65;;;-1.90;97.00;;;;;;5079132;28;20479;-70
2022/12/13 00:21:40;;;;;;;23.80;21.07;;;-2.00;97.10;;;;;;5075182;28;20425;-70
2022/12/13 00:24:08;;;;;;;24.30;21.65;;;-2.00;97.20;;;;;;5078335;28;20421;-69
2022/12/13 00:26:34;;;;;;;24.63;21.00;;;-2.00;97.30;;;;;;5086228;28;20414;-70
2022/12/13 00:29:03;;;;;;;24.30;21.00;;;-2.00;97.20;;;;;;5087381;28;20410;-69
2022/12/13 00:31:31;;;;;;;24.63;21.10;;;-2.00;97.20;;;;;;5083572;28;20922;-70
2022/12/13 00:33:58;;;;;;;24.00;21.38;;;-2.00;97.10;;;;;;5076843;28;20544;-70
2022/12/13 00:36:24;;;;;;;24.47;21.63;;;-2.00;97.10;;;;;;5069003;28;20525;-70
2022/12/13 00:39:00;;;;;;;23.88;21.20;;;-1.90;96.90;;;;;;5083815;28;20441;-70
2022/12/13 00:41:29;;;;;;;23.90;20.42;;;-1.90;96.70;;;;;;5087347;28;20421;-69
2022/12/13 00:43:56;;;;;;;22.83;20.17;;;-1.90;96.40;;;;;;5082812;28;20429;-70
2022/12/13 00:46:23;;;;;;;26.77;21.95;;;-1.90;96.30;;;;;;5085582;28;20429;-69
2022/12/13 00:48:51;;;;;;;24.15;20.58;;;-1.90;96.40;;;;;;5078548;28;20414;-69
2022/12/13 00:51:18;;;;;;;23.13;20.63;;;-1.90;96.40;;;;;;5087223;28;20420;-69
2022/12/13 00:53:45;;;;;;;25.30;21.83;;;-1.90;96.40;;;;;;5083650;28;20803;-69
2022/12/13 00:56:15;;;;;;;23.88;20.77;;;-1.90;96.20;;;;;;5084416;28;20435;-69
2022/12/13 00:58:42;;;;;;;25.10;21.47;;;-1.90;96.10;;;;;;5070285;28;20431;-69
2022/12/13 01:01:11;;;;;;;25.40;22.27;;;-1.90;96.10;;;;;;5081517;28;20750;-69
2022/12/13 01:03:39;;;;;;;23.90;20.60;;;-1.90;96.00;;;;;;5074687;28;20419;-69
2022/12/13 01:06:10;;;;;;;25.10;20.40;;;-1.90;95.90;;;;;;5070929;28;20418;-69
2022/12/13 01:08:37;;;;;;;25.90;21.40;;;-1.90;95.80;;;;;;5090040;28;20471;-70
2022/12/13 01:11:04;;;;;;;23.60;20.70;;;-1.90;95.80;;;;;;5090900;28;20416;-70
2022/12/13 01:13:32;;;;;;;24.00;21.38;;;-2.00;95.90;;;;;;5089701;28;20825;-69
2022/12/13 01:16:01;;;;;;;26.23;22.25;;;-2.00;96.00;;;;;;5082038;28;20409;-70
2022/12/13 01:18:28;;;;;;;24.88;20.67;;;-2.00;96.00;;;;;;5084115;28;20434;-69
2022/12/13 01:20:58;;;;;;;23.40;20.70;;;-2.00;95.90;;;;;;5088072;28;20452;-69
2022/12/13 01:23:26;;;;;;;23.55;21.05;;;-2.00;95.90;;;;;;5089735;28;20908;-69
2022/12/13 01:25:53;;;;;;;25.73;22.65;;;-2.10;95.90;;;;;;5090478;28;20812;-70
2022/12/13 01:28:19;;;;;;;25.50;22.05;;;-2.10;96.00;;;;;;5087898;28;20430;-70
2022/12/13 01:30:55;;;;;;;24.10;20.95;;;-2.10;96.10;;;;;;5089315;28;20437;-71
2022/12/13 01:33:23;;;;;;;24.52;20.77;;;-2.10;96.10;;;;;;5074182;28;20430;-71
2022/12/13 01:35:50;;;;;;;23.45;20.98;;;-2.10;95.80;;;;;;5090150;28;20441;-71
2022/12/13 01:38:17;;;;;;;23.67;20.25;;;-2.10;95.50;;;;;;5089828;28;20426;-71
2022/12/13 01:40:45;;;;;;;24.13;21.58;;;-2.10;95.30;;;;;;5089377;28;20433;-69
2022/12/13 01:43:13;;;;;;;23.17;20.63;;;-2.10;95.30;;;;;;5078929;28;20621;-71
2022/12/13 01:45:41;;;;;;;23.45;20.83;;;-2.20;95.40;;;;;;5080726;28;20479;-70
2022/12/13 01:48:12;;;;;;;24.45;21.20;;;-2.20;95.60;;;;;;5078412;28;20427;-71
2022/12/13 01:50:43;;;;;;;26.55;22.50;;;-2.30;95.90;;;;;;5087678;28;20434;-71
2022/12/13 01:53:14;;;;;;;24.08;21.42;;;-2.30;96.10;;;;;;5076982;28;20431;-71
2022/12/13 01:55:45;;;;;;;23.70;21.10;;;-2.30;96.20;;;;;;5085421;28;20918;-71
2022/12/13 01:58:13;;;;;;;24.23;21.00;;;-2.40;96.20;;;;;;5088306;28;20417;-71
2022/12/13 02:00:40;;;;;;;25.30;21.70;;;-2.40;96.30;;;;;;5081036;28;20924;-71
2022/12/13 02:03:09;;;;;;;25.77;22.33;;;-2.40;96.30;;;;;;5079529;28;20434;-71
2022/12/13 02:05:40;;;;;;;24.65;21.50;;;-2.40;96.40;;;;;;5081084;28;20422;-69
2022/12/13 02:08:09;;;;;;;23.90;21.40;;;-2.50;96.40;;;;;;5088732;28;20953;-69
2022/12/13 02:10:36;;;;;;;25.38;22.00;;;-2.50;96.40;;;;;;5089498;28;20412;-69
2022/12/13 02:13:04;;;;;;;23.35;20.90;;;-2.50;96.50;;;;;;5077539;28;20430;-69
2022/12/13 02:15:37;;;;;;;24.45;21.80;;;-2.50;96.40;;;;;;5086474;28;20931;-68
2022/12/13 02:18:32;;;;;;;21.27;18.85;;;-2.50;96.00;;;;;;5079803;28;20501;-70
2022/12/13 02:21:19;;;;;;;23.63;20.10;;;-2.40;95.50;;;;;;5086093;28;20436;-70
2022/12/13 02:24:14;;;;;;;24.67;20.73;;;-2.40;95.20;;;;;;5088763;28;20433;-70
2022/12/13 02:26:54;;;;;;;23.00;20.40;;;-2.50;95.30;;;;;;5064810;28;20557;-70
2022/12/13 02:29:51;;;;;;;23.90;19.60;;;-2.50;95.40;;;;;;5081671;28;20427;-70
2022/12/13 02:32:28;;;;;;;22.67;20.27;;;-2.60;95.40;;;;;;5081730;28;20426;-70
2022/12/13 02:35:01;;;;;;;22.92;20.42;;;-2.60;95.60;;;;;;5070766;28;20424;-70
2022/12/13 02:37:36;;;;;;;22.80;20.10;;;-2.60;95.60;;;;;;5078446;28;20426;-70
2022/12/13 02:40:09;;;;;;;22.08;19.52;;;-2.60;95.50;;;;;;5079754;28;20435;-71
2022/12/13 02:42:42;;;;;;;22.40;19.55;;;-2.60;95.10;;;;;;5086631;28;21132;-71
2022/12/13 02:45:14;;;;;;;21.45;19.10;;;-2.60;95.10;;;;;;5079733;28;20430;-69
2022/12/13 02:47:43;;;;;;;24.70;20.63;;;-2.60;95.10;;;;;;5088579;28;20448;-70
2022/12/13 02:50:13;;;;;;;23.95;19.58;;;-2.60;94.90;;;;;;5087589;28;20417;-69
2022/12/13 02:52:41;;;;;;;22.95;20.08;;;-2.60;94.90;;;;;;5076212;28;20435;-69
2022/12/13 02:55:12;;;;;;;22.60;19.98;;;-2.60;94.90;;;;;;5088365;28;20425;-69
2022/12/13 02:57:41;;;;;;;23.98;20.67;;;-2.60;95.00;;;;;;5080762;28;20439;-69
2022/12/13 03:00:10;;;;;;;20.60;18.40;;;-2.70;95.00;;;;;;5079920;28;20413;-69
2022/12/13 03:02:51;;;;;;;22.92;19.90;;;-2.70;94.90;;;;;;5087335;28;20787;-70
2022/12/13 03:08:21;;;;;;;22.15;19.58;;;-2.70;94.80;;;;;;5086979;28;20417;-70
2022/12/13 03:10:58;;;;;;;22.10;19.40;;;-2.70;94.70;;;;;;5079775;28;20409;-69
2022/12/13 03:13:36;;;;;;;22.67;20.27;;;-2.70;94.60;;;;;;5087028;28;20429;-70
2022/12/13 03:16:22;;;;;;;20.92;18.08;;;-2.70;94.60;;;;;;5084536;28;20800;-69
2022/12/13 03:18:51;;;;;;;23.00;19.92;;;-2.80;94.60;;;;;;5068015;28;20427;-70
2022/12/13 03:21:18;;;;;;;22.10;19.48;;;-2.80;94.50;;;;;;5081806;28;20462;-70
2022/12/13 03:23:46;;;;;;;22.73;19.77;;;-2.80;94.50;;;;;;5087438;28;20459;-69
2022/12/13 03:26:15;;;;;;;24.58;20.05;;;-2.90;94.40;;;;;;5087825;28;20410;-69
2022/12/13 03:28:42;;;;;;;23.02;19.55;;;-2.90;94.50;;;;;;5079029;28;20426;-71
2022/12/13 03:31:09;;;;;;;23.03;20.30;;;-3.00;94.70;;;;;;5079620;28;20448;-69
2022/12/13 03:33:37;;;;;;;22.38;19.85;;;-3.00;94.80;;;;;;5087262;28;20429;-70
2022/12/13 03:36:07;;;;;;;23.13;20.13;;;-3.00;94.80;;;;;;5084265;28;20487;-68
2022/12/13 03:38:33;;;;;;;22.93;19.50;;;-3.00;94.60;;;;;;5083830;28;20435;-69
2022/12/13 03:41:03;;;;;;;23.08;19.42;;;-2.90;94.50;;;;;;5077732;28;20410;-70
2022/12/13 03:43:30;;;;;;;21.50;19.00;;;-2.90;94.30;;;;;;5067423;28;20410;-68
2022/12/13 03:45:57;;;;;;;22.77;19.27;;;-3.00;94.40;;;;;;5077476;28;20420;-69
2022/12/13 03:48:25;;;;;;;21.20;18.80;;;-3.00;94.90;;;;;;5088001;28;20419;-70
2022/12/13 03:50:54;;;;;;;22.75;20.23;;;-3.00;94.50;;;;;;5086572;28;20434;-70
2022/12/13 03:53:24;;;;;;;22.10;19.70;;;-3.00;94.40;;;;;;5082185;28;20444;-69
2022/12/13 03:55:51;;;;;;;23.65;19.13;;;-3.00;94.60;;;;;;5070579;28;20889;-70
2022/12/13 03:58:17;;;;;;;24.58;21.35;;;-3.10;94.70;;;;;;5067704;28;20902;-69
2022/12/13 04:00:44;;;;;;;23.40;19.95;;;-3.10;94.60;;;;;;5076501;28;20445;-69
2022/12/13 04:03:11;;;;;;;21.60;18.05;;;-3.10;94.50;;;;;;5082794;28;20914;-69
2022/12/13 04:05:38;;;;;;;23.13;19.48;;;-3.10;94.40;;;;;;5075855;28;20502;-69
2022/12/13 04:08:05;;;;;;;21.35;18.95;;;-3.10;94.20;;;;;;5083522;28;20429;-69
2022/12/13 04:10:34;;;;;;;23.17;19.52;;;-3.10;94.10;;;;;;5075242;28;20832;-69
2022/12/13 04:15:47;;;;;;;23.85;19.73;;;-3.10;94.20;;;;;;5081856;28;20424;-68
2022/12/13 04:18:15;;;;;;;24.25;20.60;;;-3.20;94.30;;;;;;5071055;28;20435;-69
2022/12/13 04:20:41;;;;;;;23.30;19.42;;;-3.20;94.30;;;;;;5077076;28;20416;-69
2022/12/13 04:23:08;;;;;;;23.77;19.02;;;-3.20;94.40;;;;;;5077337;28;20446;-69
2022/12/13 04:25:37;;;;;;;25.73;21.08;;;-3.20;94.50;;;;;;5072286;28;20412;-69
2022/12/13 04:28:03;;;;;;;23.25;19.60;;;-3.20;94.40;;;;;;5073149;28;21075;-69
2022/12/13 04:30:30;;;;;;;23.98;19.40;;;-3.20;94.20;;;;;;5079143;28;20442;-69
2022/12/13 04:32:57;;;;;;;23.90;19.48;;;-3.30;94.30;;;;;;5079531;28;20428;-70
2022/12/13 04:35:24;;;;;;;22.17;19.70;;;-3.30;94.40;;;;;;5083708;28;20801;-68
2022/12/13 04:37:50;;;;;;;22.23;18.83;;;-3.30;94.40;;;;;;5079741;28;20944;-71
2022/12/13 04:40:17;;;;;;;23.38;18.92;;;-3.30;94.40;;;;;;5085145;28;20426;-70
2022/12/13 04:42:45;;;;;;;24.48;20.52;;;-3.40;94.50;;;;;;5074606;28;20416;-70
2022/12/13 04:45:15;;;;;;;22.57;19.30;;;-3.40;94.70;;;;;;5074145;28;20506;-71
2022/12/13 04:47:42;;;;;;;24.60;19.58;;;-3.50;94.70;;;;;;5086732;28;20437;-70
2022/12/13 04:50:10;;;;;;;21.58;19.02;;;-3.50;94.80;;;;;;5090976;28;20452;-71
2022/12/13 04:52:38;;;;;;;23.00;18.47;;;-3.50;94.80;;;;;;5083002;28;20439;-71
2022/12/13 04:55:05;;;;;;;23.20;19.00;;;-3.60;94.90;;;;;;5079042;28;20447;-71
2022/12/13 04:57:32;;;;;;;23.67;19.58;;;-3.60;95.00;;;;;;5076863;28;20414;-70
2022/12/13 05:00:00;;;;;;;24.70;19.60;;;-3.60;95.10;;;;;;5083841;28;20430;-71
2022/12/13 05:02:27;;;;;;;21.80;19.40;;;-3.60;95.30;;;;;;5078246;28;20419;-71
2022/12/13 05:04:54;;;;;;;24.55;19.20;;;-3.60;95.30;;;;;;5079385;28;20429;-70
2022/12/13 05:07:21;;;;;;;25.67;19.67;;;-3.60;95.40;;;;;;5075632;28;21055;-70
2022/12/13 05:09:48;;;;;;;23.70;19.20;;;-3.60;95.60;;;;;;5075862;28;20438;-71
2022/12/13 05:12:15;;;;;;;22.23;19.50;;;-3.70;95.50;;;;;;5077327;28;20427;-71
2022/12/13 05:14:42;;;;;;;22.38;19.48;;;-3.70;95.70;;;;;;5070489;28;20933;-70
2022/12/13 05:17:10;;;;;;;24.05;18.92;;;-3.70;95.90;;;;;;5071316;28;20431;-71
2022/12/13 05:19:36;;;;;;;24.45;19.98;;;-3.70;96.10;;;;;;5079601;28;20439;-69
2022/12/13 05:22:03;;;;;;;24.17;20.45;;;-3.70;96.10;;;;;;5074246;28;20429;-70
2022/12/13 05:24:31;;;;;;;21.98;19.00;;;-3.70;96.30;;;;;;5079055;28;20431;-69
2022/12/13 05:26:58;;;;;;;22.92;18.88;;;-3.70;96.60;;;;;;5082177;28;20433;-70
2022/12/13 05:29:26;;;;;;;21.67;18.85;;;-3.70;96.50;;;;;;5079549;28;20815;-70
2022/12/13 05:31:53;;;;;;;23.60;18.67;;;-3.60;96.30;;;;;;5085761;28;20453;-70
2022/12/13 05:34:21;;;;;;;21.02;18.73;;;-3.70;96.30;;;;;;5079780;28;20427;-71
2022/12/13 05:36:48;;;;;;;22.42;19.77;;;-3.70;96.30;;;;;;5085405;28;20784;-71
2022/12/13 05:39:14;;;;;;;24.13;19.75;;;-3.70;96.30;;;;;;5086418;28;20426;-71
2022/12/13 05:41:41;;;;;;;23.05;19.33;;;-3.70;96.30;;;;;;5080040;28;20430;-70
2022/12/13 05:44:09;;;;;;;25.10;20.40;;;-3.60;96.10;;;;;;5079765;28;20418;-71
2022/12/13 05:46:36;;;;;;;25.85;20.85;;;-3.70;95.90;;;;;;5082786;28;20434;-70
2022/12/13 05:49:03;;;;;;;24.05;20.58;;;-3.70;96.00;;;;;;5077555;28;20430;-72
2022/12/13 05:51:31;;;;;;;24.20;19.57;;;-3.70;95.90;;;;;;5086614;28;20506;-69
2022/12/13 05:53:57;;;;;;;24.70;20.42;;;-3.70;95.80;;;;;;5085486;28;20421;-72
2022/12/13 05:56:24;;;;;;;23.73;20.00;;;-3.70;95.70;;;;;;5075357;28;20418;-70
2022/12/13 05:58:52;;;;;;;24.00;19.83;;;-3.70;95.90;;;;;;5080061;28;20436;-70
2022/12/13 06:01:20;;;;;;;24.20;20.27;;;-3.70;95.80;;;;;;5079196;28;20515;-70
2022/12/13 06:03:46;;;;;;;22.35;19.80;;;-3.70;96.10;;;;;;5070221;28;20427;-70
2022/12/13 06:06:16;;;;;;;23.05;19.80;;;-3.70;95.50;;;;;;5077974;28;20427;-70
2022/12/13 06:08:44;;;;;;;25.33;20.35;;;-3.70;95.70;;;;;;5081686;28;20505;-71
2022/12/13 06:11:11;;;;;;;21.95;19.00;;;-3.70;95.70;;;;;;5084130;28;20430;-71
2022/12/13 06:13:39;;;;;;;22.83;19.92;;;-3.70;95.70;;;;;;5077966;28;20434;-69
2022/12/13 06:16:06;;;;;;;23.03;19.30;;;-3.70;95.80;;;;;;5074776;28;20438;-69
2022/12/13 06:18:35;;;;;;;22.95;19.67;;;-3.70;96.00;;;;;;5074890;28;20419;-69
2022/12/13 06:21:03;;;;;;;22.65;19.13;;;-3.70;96.10;;;;;;5082870;28;20456;-70
2022/12/13 06:23:32;;;;;;;23.35;20.50;;;-3.70;96.20;;;;;;5084718;28;20757;-69
2022/12/13 06:26:02;;;;;;;23.37;19.73;;;-3.70;96.30;;;;;;5075020;28;20833;-70
2022/12/13 06:28:29;;;;;;;24.70;19.27;;;-3.70;96.10;;;;;;5074459;28;20795;-70
2022/12/13 06:31:00;;;;;;;24.35;19.15;;;-3.70;96.10;;;;;;5077636;28;20437;-70
2022/12/13 06:33:27;;;;;;;25.30;20.00;;;-3.60;96.10;;;;;;5084822;28;20464;-70
2022/12/13 06:35:56;;;;;;;23.77;19.17;;;-3.70;96.10;;;;;;5078005;28;20431;-69
2022/12/13 06:38:24;;;;;;;22.20;18.50;;;-3.60;96.00;;;;;;5083220;28;20420;-68
2022/12/13 06:40:50;;;;;;;21.83;18.45;;;-3.60;95.90;;;;;;5080038;28;20422;-69
2022/12/13 06:43:20;;;;;;;21.58;18.23;;;-3.60;95.90;;;;;;5069393;28;20426;-69
2022/12/13 06:45:47;;;;;;;20.88;17.80;;;-3.60;95.90;;;;;;5074740;28;20425;-68
2022/12/13 06:48:14;;;;;;;22.02;17.90;;;-3.60;95.80;;;;;;5077973;28;20789;-69
2022/12/13 06:50:41;;;;;;;21.25;18.20;;;-3.60;95.80;;;;;;5077663;28;20506;-69
2022/12/13 06:53:07;;;;;;;19.17;16.80;;;-3.60;95.90;;;;;;5073876;28;20790;-70
2022/12/13 06:55:35;;;;;;;20.42;17.00;;;-3.50;95.80;;;;;;5077008;28;20440;-70
2022/12/13 06:58:02;;;;;;;20.65;17.80;;;-3.50;95.60;;;;;;5079897;28;20429;-70
2022/12/13 07:00:31;;;;;;;20.75;17.30;;;-3.60;95.80;;;;;;5085576;28;20875;-70
2022/12/13 07:02:58;;;;;;;21.77;17.75;;;-3.50;95.70;;;;;;5068094;28;20416;-70
2022/12/13 07:05:26;;;;;;;20.42;17.20;;;-3.50;95.60;;;;;;5073073;28;20437;-70
2022/12/13 07:07:53;;;;;;;20.20;16.33;;;-3.50;95.30;;;;;;5080801;28;20431;-70
2022/12/13 07:10:20;;;;;;;20.08;17.17;;;-3.50;95.20;;;;;;5068462;28;20435;-70
2022/12/13 07:12:47;;;;;;;19.73;17.08;;;-3.50;94.90;;;;;;5078827;28;21054;-70
2022/12/13 07:15:13;;;;;;;21.25;17.50;;;-3.60;94.80;;;;;;5082606;28;20429;-69
2022/12/13 07:17:42;;;;;;;20.60;16.73;;;-3.60;95.00;;;;;;5085663;28;20432;-70
2022/12/13 07:20:12;;;;;;;20.17;17.20;;;-3.60;94.90;;;;;;5070511;28;20435;-70
2022/12/13 07:22:39;;;;;;;20.73;16.95;;;-3.60;95.20;;;;;;5075770;28;20809;-70
2022/12/13 07:25:06;;;;;;;23.27;17.75;;;-3.60;94.90;;;;;;5079036;28;20410;-70
2022/12/13 07:27:34;;;;;;;19.27;16.63;;;-3.60;94.90;;;;;;5074858;28;20422;-70
2022/12/13 07:30:01;;;;;;;19.30;17.20;;;-3.70;95.00;;;;;;5078917;28;20417;-70
2022/12/13 07:32:28;;;;;;;22.77;17.92;;;-3.70;94.90;;;;;;5078206;28;20416;-70
2022/12/13 07:34:56;;;;;;;20.52;17.00;;;-3.70;94.60;;;;;;5067944;28;20434;-70
2022/12/13 07:37:23;;;;;;;21.40;18.10;;;-3.70;94.60;;;;;;5068026;28;20890;-70
2022/12/13 07:39:50;;;;;;;21.27;18.13;;;-3.70;94.60;;;;;;5082447;28;20410;-70
2022/12/13 07:42:17;;;;;;;19.38;17.02;;;-3.70;94.60;;;;;;5077372;28;20427;-70
2022/12/13 07:44:43;;;;;;;22.30;17.98;;;-3.80;94.60;;;;;;5077043;28;20419;-70
2022/12/13 07:47:10;;;;;;;19.27;17.13;;;-3.70;94.80;;;;;;5071559;28;20413;-69
2022/12/13 07:49:37;;;;;;;20.10;17.50;;;-3.70;94.90;;;;;;5071342;28;20419;-70
2022/12/13 07:52:05;;;;;;;20.92;17.52;;;-3.70;95.00;;;;;;5077599;28;20411;-70
2022/12/13 07:54:32;;;;;;;20.88;17.20;;;-3.70;94.80;;;;;;5068632;28;20937;-72
2022/12/13 07:56:59;;;;;;;20.53;17.50;;;-3.70;94.80;;;;;;5077856;28;20433;-71
2022/12/13 07:59:26;;;;;;;20.35;17.48;;;-3.70;94.80;;;;;;5072142;28;20490;-71
2022/12/13 08:01:53;;;;;;;19.33;17.23;;;-3.60;94.80;;;;;;5073794;28;20427;-72
2022/12/13 08:04:20;;;;;;;21.00;17.45;;;-3.60;94.80;;;;;;5080847;28;20930;-69
2022/12/13 08:06:46;;;;;;;20.17;17.67;;;-3.60;94.90;;;;;;5093000;28;20919;-72
2022/12/13 08:09:14;;;;;;;21.23;18.08;;;-3.50;95.00;;;;;;5078388;28;20410;-69
2022/12/13 08:11:41;;;;;;;21.02;16.90;;;-3.50;94.90;;;;;;5089695;28;20434;-70
2022/12/13 08:14:08;;;;;;;20.85;17.90;;;-3.40;94.70;;;;;;5080536;28;21065;-70
2022/12/13 08:16:35;;;;;;;21.33;17.77;;;-3.30;94.50;;;;;;5093830;28;20431;-70
2022/12/13 08:19:02;;;;;;;20.13;17.13;;;-3.30;94.70;;;;;;5093204;28;20787;-70
2022/12/13 08:21:28;;;;;;;19.67;17.52;;;-3.20;94.60;;;;;;5092174;28;20418;-70
2022/12/13 08:23:55;;;;;;;20.05;17.60;;;-3.00;94.40;;;;;;5091451;28;20791;-69
2022/12/13 08:26:23;;;;;;;19.95;17.55;;;-2.90;94.50;;;;;;5086376;28;20443;-69
2022/12/13 08:28:50;;;;;;;19.52;17.42;;;-2.80;94.40;;;;;;5090005;28;21048;-70
2022/12/13 08:31:17;;;;;;;19.95;16.60;;;-2.50;94.20;;;;;;5084450;28;20978;-69
2022/12/13 08:33:45;;;;;;;19.65;17.38;;;-2.40;93.90;;;;;;5091002;28;20425;-70
2022/12/13 08:36:16;;;;;;;18.60;16.60;;;-2.20;93.60;;;;;;5090426;28;20507;-71
2022/12/13 08:38:43;;;;;;;19.55;16.52;;;-2.00;93.50;;;;;;5084198;28;20577;-71
2022/12/13 08:41:11;;;;;;;18.60;16.60;;;-1.80;92.90;;;;;;5087560;28;20435;-70
2022/12/13 08:43:39;;;;;;;20.25;17.38;;;-1.70;91.80;;;;;;5083774;28;20454;-68
2022/12/13 08:46:06;;;;;;;18.33;16.33;;;-1.60;91.60;;;;;;5090097;28;20894;-68
2022/12/13 08:48:33;;;;;;;18.67;16.02;;;-1.50;91.60;;;;;;5088466;28;20428;-70
2022/12/13 08:51:02;;;;;;;18.67;15.40;;;-1.30;91.20;;;;;;5091155;28;20436;-71
2022/12/13 08:53:29;;;;;;;17.95;15.55;;;-1.20;90.10;;;;;;5086878;28;20433;-69
2022/12/13 08:56:00;;;;;;;17.77;15.88;;;-1.20;90.00;;;;;;5080217;28;20460;-69
2022/12/13 08:58:26;;;;;;;18.83;16.45;;;-1.10;90.10;;;;;;5083972;28;20434;-68
2022/12/13 09:00:54;;;;;;;17.90;16.00;;;-1.00;89.60;;;;;;5079616;28;21108;-71
2022/12/13 09:03:21;;;;;;;17.75;15.73;;;-0.90;90.00;;;;;;5090071;28;20425;-70
2022/12/13 09:05:48;;;;;;;18.05;15.13;;;-0.70;88.30;;;;;;5085513;28;20433;-69
2022/12/13 09:08:15;;;;;;;18.42;15.80;;;-0.70;86.70;;;;;;5080190;28;20428;-68
2022/12/13 09:10:41;;;;;;;17.70;15.38;;;-0.70;86.10;;;;;;5077264;28;20426;-70
2022/12/13 09:13:08;;;;;;;17.30;15.50;;;-0.70;85.50;;;;;;5080442;28;20421;-68
2022/12/13 09:15:39;;;;;;;19.20;17.20;;;-0.60;86.90;;;;;;5090328;28;20422;-69
2022/12/13 09:18:07;;;;;;;19.03;16.50;;;-0.40;88.00;;;;;;5089820;28;20900;-68
2022/12/13 09:20:36;;;;;;;19.05;15.63;;;-0.20;85.90;;;;;;5090258;28;20815;-68
2022/12/13 09:23:04;;;;;;;16.98;14.90;;;0.00;85.70;;;;;;5089265;28;20501;-70
2022/12/13 09:25:32;;;;;;;19.02;15.73;;;0.10;85.30;;;;;;5087382;28;20413;-69
2022/12/13 09:28:00;;;;;;;17.65;15.57;;;0.30;83.00;;;;;;5081925;28;20424;-69
2022/12/13 09:30:27;;;;;;;16.15;14.45;;;0.30;81.60;;;;;;5085248;28;20445;-70
2022/12/13 09:32:55;;;;;;;16.95;15.25;;;0.40;80.50;;;;;;5089489;28;20490;-69
2022/12/13 09:35:23;;;;;;;16.98;14.63;;;0.40;79.50;;;;;;5089921;28;20426;-72
2022/12/13 09:37:50;;;;;;;17.15;15.43;;;0.40;79.30;;;;;;5087573;28;20434;-70
2022/12/13 09:40:20;;;;;;;18.40;16.50;;;0.30;79.50;;;;;;5085014;28;20442;-69
2022/12/13 09:42:51;;;;;;;16.15;14.45;;;0.50;80.60;;;;;;5081488;28;20430;-71
2022/12/13 09:45:18;;;;;;;17.40;15.10;;;0.80;78.60;;;;;;5077440;28;20939;-69
2022/12/13 09:47:48;;;;;;;15.65;13.95;;;0.80;77.30;;;;;;5077935;28;20420;-71
2022/12/13 09:50:20;;;;;;;16.23;14.52;;;0.80;76.30;;;;;;5085026;28;20437;-70
2022/12/13 09:52:48;;;;;;;14.90;12.97;;;0.80;76.60;;;;;;5080982;28;20419;-71
2022/12/13 09:55:23;;;;;;;15.63;14.02;;;0.90;76.10;;;;;;5081256;28;20422;-70
2022/12/13 09:57:51;;;;;;;15.82;13.90;;;1.00;76.30;;;;;;5083289;28;20508;-71
2022/12/13 10:00:20;;;;;;;15.33;13.70;;;1.10;77.10;;;;;;5081304;28;20414;-71
2022/12/13 10:02:48;;;;;;;15.45;13.85;;;1.30;76.20;;;;;;5083605;28;20420;-72
2022/12/13 10:05:20;;;;;;;15.60;13.70;;;1.50;75.00;;;;;;5085917;28;20431;-70
2022/12/13 10:07:48;;;;;;;15.77;14.07;;;1.60;73.30;;;;;;5088774;28;20458;-71
2022/12/13 10:10:15;;;;;;;15.63;13.60;;;1.50;72.10;;;;;;5079343;28;20968;-71
2022/12/13 10:12:44;;;;;;;15.80;13.80;;;1.40;72.10;;;;;;5087036;28;20433;-70
2022/12/13 10:15:16;;;;;;;14.90;12.80;;;1.30;72.30;;;;;;5085950;28;20432;-70
2022/12/13 10:17:47;;;;;;;14.82;13.30;;;1.10;71.70;;;;;;5078116;28;20421;-71
2022/12/13 10:20:18;;;;;;;14.95;13.35;;;1.10;73.70;;;;;;5089320;28;20414;-71
2022/12/13 10:22:44;;;;;;;17.30;14.30;;;1.10;74.20;;;;;;5078051;28;20433;-72
2022/12/13 10:25:13;;;;;;;15.70;13.30;;;1.30;74.80;;;;;;5085609;28;20434;-70
2022/12/13 10:27:43;;;;;;;17.85;15.10;;;1.50;73.50;;;;;;5080544;28;20417;-71
2022/12/13 10:30:12;;;;;;;17.58;15.57;;;1.80;71.70;;;;;;5084745;28;20917;-70
2022/12/13 10:32:52;;;;;;;21.40;17.80;;;2.00;71.30;;;;;;5088408;28;20414;-71
2022/12/13 10:35:25;;;;;;;16.80;14.55;;;2.00;69.80;;;;;;5087006;28;20457;-71
2022/12/13 10:37:53;;;;;;;17.73;15.82;;;1.80;69.90;;;;;;5077984;28;20434;-71
2022/12/13 10:40:35;;;;;;;16.45;14.57;;;1.90;70.10;;;;;;5074568;28;20415;-71
2022/12/13 10:43:12;;;;;;;14.40;13.00;;;2.10;70.40;;;;;;5087531;28;20492;-71
2022/12/13 10:45:39;;;;;;;14.90;12.67;;;2.20;68.70;;;;;;5087690;28;20416;-72
2022/12/13 10:48:17;;;;;;;14.30;12.82;;;2.00;68.30;;;;;;5082539;28;20409;-72
2022/12/13 10:50:43;;;;;;;15.03;12.70;;;1.80;70.10;;;;;;5077022;28;20414;-72
2022/12/13 10:53:18;;;;;;;14.60;13.07;;;1.90;70.30;;;;;;5076546;28;20431;-71
2022/12/13 10:55:53;;;;;;;16.02;13.13;;;2.00;69.90;;;;;;5080498;28;20945;-71
2022/12/13 10:58:20;;;;;;;14.52;13.13;;;2.20;69.40;;;;;;5084853;28;20433;-71
2022/12/13 11:00:48;;;;;;;14.82;13.23;;;2.20;68.70;;;;;;5079374;28;20422;-71
2022/12/13 11:03:29;;;;;;;14.30;12.80;;;2.20;68.30;;;;;;5086564;28;20414;-70
2022/12/13 11:06:02;;;;;;;14.10;12.70;;;2.40;67.90;;;;;;5085124;28;21173;-70
2022/12/13 11:08:30;;;;;;;13.88;11.57;;;2.50;66.90;;;;;;5076809;28;20423;-70
2022/12/13 11:11:00;;;;;;;13.70;12.20;;;2.50;65.80;;;;;;5074536;28;20811;-70
2022/12/13 11:13:35;;;;;;;13.90;12.40;;;2.50;66.60;;;;;;5087012;28;20540;-71
2022/12/13 11:16:03;;;;;;;13.20;11.65;;;2.40;66.20;;;;;;5081975;28;20421;-71
2022/12/13 11:18:36;;;;;;;14.93;13.43;;;2.30;67.10;;;;;;5081179;28;20436;-71
2022/12/13 11:21:06;;;;;;;13.10;11.80;;;2.20;66.80;;;;;;5088329;28;20893;-71
2022/12/13 11:23:36;;;;;;;13.82;12.43;;;2.10;66.70;;;;;;5083202;28;20536;-71
2022/12/13 11:26:09;;;;;;;13.00;11.70;;;1.90;67.20;;;;;;5084490;28;20422;-71
2022/12/13 11:29:07;;;;;;;13.90;12.45;;;1.90;67.90;;;;;;5083815;28;20551;-71
2022/12/13 11:31:40;;;;;;;14.30;12.63;;;1.90;67.80;;;;;;5079123;28;20458;-70
2022/12/13 11:34:18;;;;;;;13.67;11.40;;;1.90;67.30;;;;;;5084981;28;20410;-71
2022/12/13 11:36:50;;;;;;;12.80;11.30;;;1.90;67.40;;;;;;5106216;22;20853;-74
2022/12/13 11:39:24;;;;;;;13.00;11.63;;;2.10;66.80;;;;;;5039405;28;20444;-74
2022/12/13 11:41:59;;;;;;;11.93;10.73;;;2.30;67.00;;;;;;5044246;28;20764;-75
2022/12/13 11:44:37;;;;;;;13.07;11.55;;;2.60;66.00;;;;;;5032389;28;20434;-74
2022/12/13 11:47:07;;;;;;;13.10;11.60;;;2.70;64.60;;;;;;5045202;28;20421;-74
2022/12/13 11:49:38;;;;;;;12.40;11.10;;;2.50;64.00;;;;;;5045092;28;20429;-74
2022/12/13 11:52:14;;;;;;;13.70;12.00;;;2.40;64.00;;;;;;5029924;28;20443;-74
2022/12/13 11:54:49;;;;;;;12.13;10.93;;;2.40;65.20;;;;;;5022419;28;20426;-74
2022/12/13 11:57:31;;;;;;;12.60;11.30;;;2.70;64.90;;;;;;5017615;28;20455;-74
2022/12/13 12:00:04;;;;;;;12.50;11.20;;;2.90;63.80;;;;;;5024758;28;20428;-74
2022/12/13 12:02:34;;;;;;;12.75;11.45;;;3.20;62.20;;;;;;5025192;28;20415;-74
2022/12/13 12:05:05;;;;;;;13.33;11.93;;;3.50;62.30;;;;;;5023326;28;20437;-74
2022/12/13 12:07:37;;;;;;;12.90;11.60;;;3.90;60.80;;;;;;5024198;28;20430;-74
2022/12/13 12:10:19;;;;;;;13.50;11.68;;;4.10;59.70;;;;;;5025401;28;20427;-76
2022/12/13 12:12:55;;;;;;;13.27;11.98;;;3.90;59.30;;;;;;5021718;28;20438;-75
2022/12/13 12:15:28;;;;;;;14.10;11.95;;;3.70;59.90;;;;;;5020312;28;20699;-75
2022/12/13 12:17:55;;;;;;;13.83;12.43;;;3.70;59.60;;;;;;5033501;28;20522;-74
2022/12/13 12:20:27;;;;;;;12.55;11.25;;;3.60;60.60;;;;;;5042452;28;20432;-75
2022/12/13 12:23:04;;;;;;;13.32;12.02;;;3.80;60.70;;;;;;5018429;28;20449;-74
2022/12/13 12:25:43;;;;;;;13.50;12.20;;;4.00;60.10;;;;;;5025428;28;20537;-75
2022/12/13 12:28:21;;;;;;;13.38;11.98;;;4.10;59.50;;;;;;5023871;28;20415;-75
2022/12/13 12:30:55;;;;;;;14.40;12.55;;;4.00;59.60;;;;;;5021749;28;20556;-74
2022/12/13 12:33:32;;;;;;;16.40;13.25;;;3.80;59.60;;;;;;5025982;28;20415;-73
2022/12/13 12:36:09;;;;;;;14.52;12.90;;;3.50;60.70;;;;;;5034957;28;20423;-75
2022/12/13 12:38:51;;;;;;;12.88;11.57;;;3.30;61.50;;;;;;5015151;28;20517;-74
2022/12/13 12:41:41;;;;;;;12.70;11.40;;;3.30;60.40;;;;;;5027841;28;20415;-74
2022/12/13 12:44:22;;;;;;;12.80;11.18;;;3.20;60.40;;;;;;5024678;28;20432;-76
2022/12/13 12:47:04;;;;;;;12.48;11.18;;;2.90;60.80;;;;;;5026269;28;20499;-74
2022/12/13 12:50:13;;;;;;;12.50;11.20;;;2.70;62.30;;;;;;5028353;28;20529;-74